Nearby METAR Reports

 

KSNK - Snyder/Winston, Texas, USA
Distance from station: SSE 25mi, 41km
Updated: Mon, 15-Aug-2022 3:35am CDT
Clear
Clear
 Wind from SSE
Wind: SSE 9 mph , 15 km/h
Temperature: 79°F , 26°C
Dew Point: 63°F , 17°C
Humidity: 58%
Barometer: 30.00 inHg , 1015.9 hPa
Clouds: Clear
Visibility: 10 miles , 16 km
2022/08/15 08:35 KSNK 150835Z AUTO 15008KT 10SM CLR 26/17 A3000 RMK AO2 T02580170
KSWW - Sweetwater, Texas, USA
Distance from station: SE 56mi, 90km
Updated: Mon, 15-Aug-2022 3:35am CDT
Clear
Clear
 Wind from S
Wind: S 12 mph , 19 km/h
Temperature: 79°F , 26°C
Dew Point: 64°F , 18°C
Humidity: 61%
Barometer: 30.02 inHg , 1016.6 hPa
Clouds: Clear
Visibility: 10 miles , 16 km
2022/08/15 08:35 KSWW 150835Z AUTO 17010KT 10SM CLR 26/18 A3002 RMK AO2 T02560182
 
KLBB - Lubbock, Texas, USA
Distance from station: NW 59mi, 94km
Updated: Mon, 15-Aug-2022 2:53am CDT
Clear
Clear
 Wind from SSE
Wind: SSE 10 mph , 17 km/h
Temperature: 79°F , 26°C
Dew Point: 57°F , 14°C
Humidity: 48%
Barometer: 30.03 inHg , 1016.9 hPa
Clouds: Clear
Visibility: 10 miles , 16 km
2022/08/15 07:53 KLBB 150753Z 16009KT 10SM CLR 26/14 A3003 RMK AO2 SLP109 T02610144 $
KPVW - Plainview, Texas, USA
Distance from station: NNW 85mi, 137km
Updated: Mon, 15-Aug-2022 3:35am CDT
Clear
Clear
 Wind from S
Wind: S 5 mph , 7 km/h
Temperature: 68°F , 20°C
Dew Point: 54°F , 12°C
Humidity: 60%
Barometer: 30.04 inHg , 1017.3 hPa
Clouds: Clear
Visibility: 10 miles , 16 km
2022/08/15 08:35 KPVW 150835Z AUTO 17004KT 10SM CLR 20/12 A3004 RMK AO2 T01970120
 
KDYS - Dyess Afb/Abilen, Texas, USA
Distance from station: ESE 88mi, 141km
Updated: Mon, 15-Aug-2022 2:56am CDT
Clear
Clear
 Wind from SSE
Wind: SSE 13 mph , 20 km/h
Temperature: 79°F , 26°C
Dew Point: 63°F , 17°C
Humidity: 58%
Barometer: 29.95 inHg , 1014.2 hPa
Clouds: Clear
Visibility: 10 miles , 16 km
2022/08/15 07:56 KDYS 150756Z AUTO 16011KT 10SM CLR 26/17 A2995 RMK AO2 SLP087 T02620173
KGNC - Seminole, Texas, USA
Distance from station: WSW 89mi, 144km
Updated: Mon, 15-Aug-2022 3:35am CDT
Clear
Clear
 Wind from SE
Wind: SE 5 mph , 7 km/h
Temperature: 75°F , 24°C
Dew Point: 57°F , 14°C
Humidity: 54%
Barometer: 30.07 inHg , 1018.3 hPa
Clouds: Clear
Visibility: 10 miles , 16 km
2022/08/15 08:35 KGNC 150835Z AUTO 13004KT 10SM CLR 24/14 A3007 RMK AO2 T02370140
 
KE11 - Andrews, Texas, USA
Distance from station: WSW 93mi, 149km
Updated: Mon, 15-Aug-2022 3:35am CDT
Clear
Clear
 Wind from SSE
Wind: SSE 10 mph , 17 km/h
Temperature: 79°F , 26°C
Dew Point: 61°F , 16°C
Humidity: 54%
Barometer: 30.03 inHg , 1016.9 hPa
Clouds: Clear
Visibility: 10 miles , 16 km
2022/08/15 08:35 KE11 150835Z AUTO 16009KT 10SM CLR 26/16 A3003 RMK AO2 T02550157
KABI - Abilene, Texas, USA
Distance from station: ESE 96mi, 154km
Updated: Mon, 15-Aug-2022 2:52am CDT
Clear
Clear
 Wind from SSE
Wind: SSE 14 mph , 22 km/h, Gust: 21 mph , 33 km/h
Temperature: 81°F , 27°C
Heat Index: 83°F , 28°C
Dew Point: 66°F , 19°C
Humidity: 62%
Barometer: 29.98 inHg , 1015.2 hPa
Clouds: Clear
Visibility: 10 miles , 16 km
2022/08/15 07:52 KABI 150752Z 16012G18KT 10SM CLR 27/19 A2998 RMK AO2 SLP122 T02670189
 
KMAF - Midland, Texas, USA
Distance from station: SW 96mi, 154km
Updated: Mon, 15-Aug-2022 2:53am CDT
Clear
Clear
 Wind from SSE
Wind: SSE 14 mph , 22 km/h
Temperature: 79°F , 26°C
Dew Point: 64°F , 18°C
Humidity: 61%
Barometer: 30.01 inHg , 1016.3 hPa
Clouds: Clear
Visibility: 10 miles , 16 km
2022/08/15 07:53 KMAF 150753Z AUTO 15012KT 10SM CLR 26/18 A3001 RMK AO2 SLP107 T02610178
KCDS - Childress, Texas, USA
Distance from station: NNE 110mi, 177km
Updated: Mon, 15-Aug-2022 2:53am CDT
Clear
Clear
 Wind from SSE
Wind: SSE 8 mph , 13 km/h
Temperature: 81°F , 27°C
Heat Index: 82°F , 28°C
Dew Point: 61°F , 16°C
Humidity: 51%
Barometer: 29.97 inHg , 1014.9 hPa
Clouds: Clear
Visibility: 10 miles , 16 km
2022/08/15 07:53 KCDS 150753Z AUTO 16007KT 10SM CLR 27/16 A2997 RMK AO2 SLP116 T02670156
 
KSJT - San Angelo, Texas, USA
Distance from station: SSE 121mi, 194km
Updated: Mon, 15-Aug-2022 2:51am CDT
Clear
Clear
 Wind from SSE
Wind: SSE 3 mph , 6 km/h
Temperature: 77°F , 25°C
Dew Point: 64°F , 18°C
Humidity: 65%
Barometer: 29.98 inHg , 1015.2 hPa
Clouds: Clear
Visibility: 10 miles , 16 km
2022/08/15 07:51 KSJT 150751Z AUTO 15003KT 10SM CLR 25/18 A2998 RMK AO2 SLP122 T02500183
KHOB - Hobbs/Lea Co., New Mexico, USA
Distance from station: WSW 122mi, 196km
Updated: Mon, 15-Aug-2022 3:35am CDT
Clear
Clear
 Wind from SE
Wind: SE 7 mph , 11 km/h
Temperature: 73°F , 23°C
Dew Point: 57°F , 14°C
Humidity: 57%
Barometer: 30.04 inHg , 1017.3 hPa
Clouds: Clear
Visibility: 10 miles , 16 km
2022/08/15 08:35 KHOB 150835Z AUTO 13006KT 10SM CLR 23/14 A3004 RMK AO2
 
KCOM - Coleman Muni, Texas, USA
Distance from station: SE 131mi, 212km
Updated: Mon, 15-Aug-2022 3:35am CDT
Clear
Clear
 Wind from calm
Wind: Calm
Temperature: 75°F , 24°C
Dew Point: 64°F , 18°C
Humidity: 69%
Barometer: 29.99 inHg , 1015.6 hPa
Clouds: Clear
Visibility: 10 miles , 16 km
2022/08/15 08:35 KCOM 150835Z AUTO 00000KT 10SM CLR 24/18 A2999 RMK AO2 T02430179
KBKD - Breckenridge, Texas, USA
Distance from station: E 134mi, 215km
Updated: Mon, 15-Aug-2022 3:35am CDT
Clear
Clear
 Wind from S
Wind: S 6 mph , 9 km/h
Temperature: 81°F , 27°C
Heat Index: 83°F , 28°C
Dew Point: 66°F , 19°C
Humidity: 62%
Barometer: 29.96 inHg , 1014.6 hPa
Clouds: Clear
Visibility: 7 miles , 11 km
2022/08/15 08:35 KBKD 150835Z AUTO 19005KT 7SM CLR 27/19 A2996 RMK AO2 T02710191
 
KF05 - Vernon Wilbarger, Texas, USA
Distance from station: NE 137mi, 220km
Updated: Mon, 15-Aug-2022 3:35am CDT
Clear
Clear
 Wind from S
Wind: S 8 mph , 13 km/h
Temperature: 84°F , 29°C
Heat Index: 85°F , 29°C
Dew Point: 64°F , 18°C
Humidity: 51%
Barometer: 29.94 inHg , 1013.9 hPa
Clouds: Clear
Visibility: 10 miles , 16 km
2022/08/15 08:35 KF05 150835Z AUTO 19007KT 10SM CLR 29/18 A2994 RMK AO2 T02870183